Time;durP1;ratioP1;P1;durP2;ratioP2;P2;SDS_P1;SDS_P2;PMS_P1;PMS_P2;Temp;Humidity;BMP_temperature;BMP_pressure;BME280_temperature;BME280_humidity;BME280_pressure;Samples;Min_cycle;Max_cycle;Signal;HPM_P1;HPM_P2
2022/11/15 00:00:45;;;;;;;0.00;0.00;;;;;;;;;;1753537;28;20263;-69
2022/11/15 00:01:36;;;;;;;0.00;0.00;;;;;;;;;;1753078;28;20201;-69
2022/11/15 00:02:28;;;;;;;0.00;0.00;;;;;;;;;;1752817;28;20524;-69
2022/11/15 00:03:20;;;;;;;0.00;0.00;;;;;;;;;;1753143;28;20670;-69
2022/11/15 00:04:13;;;;;;;0.00;0.00;;;;;;;;;;1753251;28;20618;-70
2022/11/15 00:05:04;;;;;;;0.00;0.00;;;;;;;;;;1753711;28;20201;-70
2022/11/15 00:05:56;;;;;;;0.00;0.00;;;;;;;;;;1753284;28;20224;-70
2022/11/15 00:06:47;;;;;;;0.00;0.00;;;;;;;;;;1753420;28;20220;-69
2022/11/15 00:07:40;;;;;;;0.00;0.00;;;;;;;;;;1752818;28;20201;-69
2022/11/15 00:08:32;;;;;;;0.10;0.10;;;;;;;;;;1753336;28;20237;-69
2022/11/15 00:09:24;;;;;;;0.00;0.00;;;;;;;;;;1753225;28;20586;-69
2022/11/15 00:10:15;;;;;;;0.00;0.00;;;;;;;;;;1754849;28;20197;-70
2022/11/15 00:11:07;;;;;;;0.00;0.00;;;;;;;;;;1754076;28;20284;-70
2022/11/15 00:11:58;;;;;;;0.00;0.00;;;;;;;;;;1753632;28;20221;-69
2022/11/15 00:12:50;;;;;;;0.00;0.00;;;;;;;;;;1753363;28;20209;-70
2022/11/15 00:13:41;;;;;;;0.00;0.00;;;;;;;;;;1753990;28;20229;-69
2022/11/15 00:14:33;;;;;;;0.00;0.00;;;;;;;;;;1754020;28;20292;-69
2022/11/15 00:15:24;;;;;;;0.00;0.00;;;;;;;;;;1754345;28;20229;-69
2022/11/15 00:16:17;;;;;;;0.00;0.00;;;;;;;;;;1753748;28;20205;-70
2022/11/15 00:17:08;;;;;;;0.00;0.00;;;;;;;;;;1753834;28;20209;-70
2022/11/15 00:17:59;;;;;;;0.00;0.00;;;;;;;;;;1753331;28;20201;-70
2022/11/15 00:18:51;;;;;;;0.00;0.00;;;;;;;;;;1760697;28;20197;-70
2022/11/15 00:19:42;;;;;;;0.00;0.00;;;;;;;;;;1760834;28;20577;-70
2022/11/15 00:20:35;;;;;;;0.00;0.00;;;;;;;;;;1761216;28;20205;-70
2022/11/15 00:21:27;;;;;;;0.00;0.00;;;;;;;;;;1760845;28;20255;-70
2022/11/15 00:22:19;;;;;;;0.00;0.00;;;;;;;;;;1760271;28;20200;-70
2022/11/15 00:23:11;;;;;;;0.00;0.00;;;;;;;;;;1760767;28;20238;-70
2022/11/15 00:24:03;;;;;;;0.00;0.00;;;;;;;;;;1760521;28;20200;-70
2022/11/15 00:24:54;;;;;;;0.00;0.00;;;;;;;;;;1754256;28;20636;-70
2022/11/15 00:25:46;;;;;;;0.00;0.00;;;;;;;;;;1756989;28;20268;-70
2022/11/15 00:26:37;;;;;;;0.00;0.00;;;;;;;;;;1759170;28;20247;-70
2022/11/15 00:27:29;;;;;;;0.00;0.00;;;;;;;;;;1757209;28;20538;-70
2022/11/15 00:28:20;;;;;;;0.00;0.00;;;;;;;;;;1760580;28;20598;-70
2022/11/15 00:29:12;;;;;;;0.00;0.00;;;;;;;;;;1761185;28;20197;-70
2022/11/15 00:30:04;;;;;;;0.00;0.00;;;;;;;;;;1762705;28;20622;-70
2022/11/15 00:31:01;;;;;;;0.00;0.00;;;;;;;;;;1762226;28;20197;-70
2022/11/15 00:31:52;;;;;;;0.00;0.00;;;;;;;;;;1762091;28;20209;-70
2022/11/15 00:32:44;;;;;;;0.00;0.00;;;;;;;;;;1761959;28;20201;-70
2022/11/15 00:33:35;;;;;;;0.10;0.10;;;;;;;;;;1762168;28;20239;-70
2022/11/15 00:34:27;;;;;;;0.00;0.00;;;;;;;;;;1761784;28;20235;-70
2022/11/15 00:35:19;;;;;;;0.00;0.00;;;;;;;;;;1762811;28;20395;-70
2022/11/15 00:36:11;;;;;;;0.00;0.00;;;;;;;;;;1762115;28;20258;-70
2022/11/15 00:37:02;;;;;;;0.00;0.00;;;;;;;;;;1762296;28;20204;-70
2022/11/15 00:37:54;;;;;;;0.00;0.00;;;;;;;;;;1762038;28;20239;-70
2022/11/15 00:38:47;;;;;;;0.00;0.00;;;;;;;;;;1761860;28;20243;-70
2022/11/15 00:39:39;;;;;;;0.00;0.00;;;;;;;;;;1762261;28;20205;-70
2022/11/15 00:40:30;;;;;;;0.00;0.00;;;;;;;;;;1762302;28;20251;-70
2022/11/15 00:41:22;;;;;;;0.00;0.00;;;;;;;;;;1762279;28;20221;-70
2022/11/15 00:42:13;;;;;;;0.00;0.00;;;;;;;;;;1761860;28;20311;-70
2022/11/15 00:43:05;;;;;;;0.00;0.00;;;;;;;;;;1762167;28;20617;-70
2022/11/15 00:43:57;;;;;;;0.00;0.00;;;;;;;;;;1762138;28;20625;-70
2022/11/15 00:44:49;;;;;;;0.00;0.00;;;;;;;;;;1762175;28;20577;-70
2022/11/15 00:45:40;;;;;;;0.00;0.00;;;;;;;;;;1762410;28;20212;-69
2022/11/15 00:46:32;;;;;;;0.00;0.00;;;;;;;;;;1762236;28;20200;-70
2022/11/15 00:47:23;;;;;;;0.00;0.00;;;;;;;;;;1761880;28;20228;-70
2022/11/15 00:48:15;;;;;;;0.00;0.00;;;;;;;;;;1762318;28;20329;-70
2022/11/15 00:49:06;;;;;;;0.00;0.00;;;;;;;;;;1761953;28;20321;-70
2022/11/15 00:49:59;;;;;;;0.00;0.00;;;;;;;;;;1762216;28;20607;-70
2022/11/15 00:50:50;;;;;;;0.00;0.00;;;;;;;;;;1762239;28;20233;-70
2022/11/15 00:51:42;;;;;;;0.10;0.10;;;;;;;;;;1762048;28;20208;-70
2022/11/15 00:52:33;;;;;;;0.00;0.00;;;;;;;;;;1761850;28;20208;-70
2022/11/15 00:53:25;;;;;;;0.00;0.00;;;;;;;;;;1761981;28;20200;-70
2022/11/15 00:54:17;;;;;;;0.00;0.00;;;;;;;;;;1761809;28;20215;-69
2022/11/15 00:55:10;;;;;;;0.00;0.00;;;;;;;;;;1755998;28;20290;-69
2022/11/15 00:56:01;;;;;;;0.00;0.00;;;;;;;;;;1759738;28;20325;-70
2022/11/15 00:56:54;;;;;;;0.00;0.00;;;;;;;;;;1758340;28;20212;-70
2022/11/15 00:57:45;;;;;;;0.00;0.00;;;;;;;;;;1760210;28;20692;-70
2022/11/15 00:58:37;;;;;;;0.00;0.00;;;;;;;;;;1762532;28;20205;-70
2022/11/15 00:59:28;;;;;;;0.00;0.00;;;;;;;;;;1761809;28;20249;-70
2022/11/15 01:00:20;;;;;;;0.00;0.00;;;;;;;;;;1762496;28;20525;-70
2022/11/15 01:01:13;;;;;;;0.00;0.00;;;;;;;;;;1761906;28;20601;-69
2022/11/15 01:02:05;;;;;;;0.00;0.00;;;;;;;;;;1762006;28;20193;-69
2022/11/15 01:02:56;;;;;;;0.00;0.00;;;;;;;;;;1761734;28;20196;-70
2022/11/15 01:03:48;;;;;;;0.00;0.00;;;;;;;;;;1761988;28;20208;-70
2022/11/15 01:04:39;;;;;;;0.00;0.00;;;;;;;;;;1762222;28;20201;-70
2022/11/15 01:05:31;;;;;;;0.00;0.00;;;;;;;;;;1761988;28;20200;-69
2022/11/15 01:06:22;;;;;;;0.00;0.00;;;;;;;;;;1761998;28;20220;-70
2022/11/15 01:07:14;;;;;;;0.00;0.00;;;;;;;;;;1762044;28;20589;-70
2022/11/15 01:08:06;;;;;;;0.00;0.00;;;;;;;;;;1761844;28;20213;-70
2022/11/15 01:08:58;;;;;;;0.00;0.00;;;;;;;;;;1761955;28;20192;-70
2022/11/15 01:09:50;;;;;;;0.00;0.00;;;;;;;;;;1761843;28;20201;-70
2022/11/15 01:10:42;;;;;;;0.00;0.00;;;;;;;;;;1761993;28;20576;-70
2022/11/15 01:11:33;;;;;;;0.00;0.00;;;;;;;;;;1761978;28;20248;-70
2022/11/15 01:12:25;;;;;;;0.00;0.00;;;;;;;;;;1761415;28;20265;-70
2022/11/15 01:13:16;;;;;;;0.00;0.00;;;;;;;;;;1762260;28;20215;-69
2022/11/15 01:14:08;;;;;;;0.00;0.00;;;;;;;;;;1761730;28;20258;-70
2022/11/15 01:14:59;;;;;;;0.00;0.00;;;;;;;;;;1762114;28;20238;-70
2022/11/15 01:15:51;;;;;;;0.00;0.00;;;;;;;;;;1761835;28;20207;-70
2022/11/15 01:16:43;;;;;;;0.00;0.00;;;;;;;;;;1761981;28;20232;-70
2022/11/15 01:17:35;;;;;;;0.00;0.00;;;;;;;;;;1761685;28;20232;-70
2022/11/15 01:18:26;;;;;;;0.00;0.00;;;;;;;;;;1761709;28;20243;-70
2022/11/15 01:19:18;;;;;;;0.00;0.00;;;;;;;;;;1757417;28;20503;-70
2022/11/15 01:20:09;;;;;;;0.00;0.00;;;;;;;;;;1755179;28;20652;-70
2022/11/15 01:21:05;;;;;;;0.00;0.00;;;;;;;;;;1754535;28;20194;-70
2022/11/15 01:21:56;;;;;;;0.00;0.00;;;;;;;;;;1761943;28;20213;-70
2022/11/15 01:22:48;;;;;;;0.00;0.00;;;;;;;;;;1761465;28;20228;-70
2022/11/15 01:23:40;;;;;;;0.00;0.00;;;;;;;;;;1762098;28;20209;-70
2022/11/15 01:24:32;;;;;;;0.00;0.00;;;;;;;;;;1761113;28;20258;-70
2022/11/15 01:25:24;;;;;;;0.00;0.00;;;;;;;;;;1762679;28;20188;-70
2022/11/15 01:26:17;;;;;;;0.00;0.00;;;;;;;;;;1761703;28;20201;-70
2022/11/15 01:27:08;;;;;;;0.00;0.00;;;;;;;;;;1756369;28;20237;-70
2022/11/15 01:27:59;;;;;;;0.00;0.00;;;;;;;;;;1761859;28;20193;-69
2022/11/15 01:28:51;;;;;;;0.00;0.00;;;;;;;;;;1761954;28;20197;-69
2022/11/15 01:29:42;;;;;;;0.00;0.00;;;;;;;;;;1762210;28;20232;-69
2022/11/15 01:30:34;;;;;;;0.00;0.00;;;;;;;;;;1762157;28;20200;-70
2022/11/15 01:31:25;;;;;;;0.00;0.00;;;;;;;;;;1761835;28;20734;-70
2022/11/15 01:32:17;;;;;;;0.00;0.00;;;;;;;;;;1759635;28;20266;-70
2022/11/15 01:33:08;;;;;;;0.00;0.00;;;;;;;;;;1754737;28;20270;-69
2022/11/15 01:34:00;;;;;;;0.00;0.00;;;;;;;;;;1754752;28;20197;-69
2022/11/15 01:34:51;;;;;;;0.00;0.00;;;;;;;;;;1747853;28;20202;-70
2022/11/15 01:35:43;;;;;;;0.00;0.00;;;;;;;;;;1754134;28;20209;-70
2022/11/15 01:36:35;;;;;;;0.00;0.00;;;;;;;;;;1754935;28;20201;-70
2022/11/15 01:37:26;;;;;;;0.00;0.00;;;;;;;;;;1754265;28;20213;-70
2022/11/15 01:38:18;;;;;;;0.00;0.00;;;;;;;;;;1754950;28;20546;-70
2022/11/15 01:39:09;;;;;;;0.00;0.00;;;;;;;;;;1754737;28;20693;-70
2022/11/15 01:40:03;;;;;;;0.00;0.00;;;;;;;;;;1754474;28;20267;-70
2022/11/15 01:40:55;;;;;;;0.00;0.00;;;;;;;;;;1754488;28;20201;-70
2022/11/15 01:41:46;;;;;;;0.00;0.00;;;;;;;;;;1755108;28;20210;-70
2022/11/15 01:42:38;;;;;;;0.00;0.00;;;;;;;;;;1754492;28;20206;-70
2022/11/15 01:43:30;;;;;;;0.00;0.00;;;;;;;;;;1754786;28;20205;-70
2022/11/15 01:44:41;;;;;;;0.00;0.00;;;;;;;;;;1754680;28;20197;-70
2022/11/15 01:45:32;;;;;;;0.00;0.00;;;;;;;;;;1754918;28;20555;-70
2022/11/15 01:46:27;;;;;;;0.00;0.00;;;;;;;;;;1754762;28;20271;-70
2022/11/15 01:47:19;;;;;;;0.00;0.00;;;;;;;;;;1754737;28;20590;-70
2022/11/15 01:48:12;;;;;;;0.00;0.00;;;;;;;;;;1754696;28;20204;-70
2022/11/15 01:49:06;;;;;;;0.00;0.00;;;;;;;;;;1754460;28;20205;-70
2022/11/15 01:49:59;;;;;;;0.00;0.00;;;;;;;;;;1754901;28;20193;-70
2022/11/15 01:50:51;;;;;;;0.00;0.00;;;;;;;;;;1755079;28;20703;-70
2022/11/15 01:51:43;;;;;;;0.00;0.00;;;;;;;;;;1759378;28;20228;-70
2022/11/15 01:52:35;;;;;;;0.00;0.00;;;;;;;;;;1761434;28;20229;-70
2022/11/15 01:53:27;;;;;;;0.00;0.00;;;;;;;;;;1761637;28;20200;-70
2022/11/15 01:54:19;;;;;;;0.00;0.00;;;;;;;;;;1761338;28;20365;-70
2022/11/15 01:55:15;;;;;;;0.00;0.00;;;;;;;;;;1762047;28;20297;-70
2022/11/15 01:56:10;;;;;;;0.00;0.00;;;;;;;;;;1761396;28;20216;-70
2022/11/15 01:57:03;;;;;;;0.00;0.00;;;;;;;;;;1761969;28;20236;-70
2022/11/15 01:57:57;;;;;;;0.00;0.00;;;;;;;;;;1761371;28;20630;-70
2022/11/15 01:58:49;;;;;;;0.00;0.00;;;;;;;;;;1761464;28;20280;-70
2022/11/15 01:59:41;;;;;;;0.00;0.00;;;;;;;;;;1761486;28;20258;-70
2022/11/15 02:00:34;;;;;;;0.00;0.00;;;;;;;;;;1761849;28;20236;-70
2022/11/15 02:01:26;;;;;;;0.00;0.00;;;;;;;;;;1761444;28;20231;-70
2022/11/15 02:02:18;;;;;;;0.00;0.00;;;;;;;;;;1761157;28;20610;-70
2022/11/15 02:03:09;;;;;;;0.00;0.00;;;;;;;;;;1761612;28;20582;-70
2022/11/15 02:04:02;;;;;;;0.00;0.00;;;;;;;;;;1761157;28;20265;-70
2022/11/15 02:04:54;;;;;;;0.00;0.00;;;;;;;;;;1761980;28;20289;-70
2022/11/15 02:05:45;;;;;;;0.00;0.00;;;;;;;;;;1761762;28;20201;-70
2022/11/15 02:06:37;;;;;;;0.00;0.00;;;;;;;;;;1761586;28;20226;-71
2022/11/15 02:07:29;;;;;;;0.00;0.00;;;;;;;;;;1761569;28;20314;-70
2022/11/15 02:08:21;;;;;;;0.00;0.00;;;;;;;;;;1761436;28;20200;-71
2022/11/15 02:09:12;;;;;;;0.00;0.00;;;;;;;;;;1761342;28;20634;-71
2022/11/15 02:10:06;;;;;;;0.00;0.00;;;;;;;;;;1762041;28;20664;-70
2022/11/15 02:10:57;;;;;;;0.00;0.00;;;;;;;;;;1761715;28;20543;-70
2022/11/15 02:11:52;;;;;;;0.00;0.00;;;;;;;;;;1761572;28;20244;-70
2022/11/15 02:12:43;;;;;;;0.00;0.00;;;;;;;;;;1761229;28;20286;-70
2022/11/15 02:13:36;;;;;;;0.00;0.00;;;;;;;;;;1761968;28;20204;-70
2022/11/15 02:14:29;;;;;;;0.00;0.00;;;;;;;;;;1760944;28;20236;-70
2022/11/15 02:15:21;;;;;;;0.00;0.00;;;;;;;;;;1761960;28;20204;-70
2022/11/15 02:16:17;;;;;;;0.00;0.00;;;;;;;;;;1761403;28;20208;-70
2022/11/15 02:17:14;;;;;;;0.00;0.00;;;;;;;;;;1761647;28;20204;-70
2022/11/15 02:18:10;;;;;;;0.00;0.00;;;;;;;;;;1758340;28;20227;-70
2022/11/15 02:19:09;;;;;;;0.00;0.00;;;;;;;;;;1759314;28;20685;-70
2022/11/15 02:20:14;;;;;;;0.00;0.00;;;;;;;;;;1759753;28;20186;-70
2022/11/15 02:21:11;;;;;;;0.00;0.00;;;;;;;;;;1756041;28;20693;-70
2022/11/15 02:22:10;;;;;;;0.00;0.00;;;;;;;;;;1762219;28;20642;-70
2022/11/15 02:23:26;;;;;;;0.00;0.00;;;;;;;;;;1760646;28;20215;-70
2022/11/15 02:24:35;;;;;;;0.00;0.00;;;;;;;;;;1761017;28;20207;-70
2022/11/15 02:25:38;;;;;;;0.00;0.00;;;;;;;;;;1754952;28;20239;-70
2022/11/15 02:26:38;;;;;;;0.00;0.00;;;;;;;;;;1757495;28;20201;-70
2022/11/15 02:27:43;;;;;;;0.00;0.00;;;;;;;;;;1757713;28;20349;-70
2022/11/15 02:28:51;;;;;;;0.00;0.00;;;;;;;;;;1761910;28;20235;-70
2022/11/15 02:29:51;;;;;;;0.00;0.00;;;;;;;;;;1761743;28;20613;-70
2022/11/15 02:30:45;;;;;;;0.00;0.00;;;;;;;;;;1761682;28;20220;-70
2022/11/15 02:31:42;;;;;;;0.00;0.00;;;;;;;;;;1761399;28;20690;-70
2022/11/15 02:32:36;;;;;;;0.20;0.20;;;;;;;;;;1757336;28;20245;-70
2022/11/15 02:33:33;;;;;;;0.00;0.00;;;;;;;;;;1754999;28;20686;-70
2022/11/15 02:34:27;;;;;;;0.00;0.00;;;;;;;;;;1755328;28;20205;-70
2022/11/15 02:35:24;;;;;;;0.00;0.00;;;;;;;;;;1755093;28;20654;-70
2022/11/15 02:36:16;;;;;;;0.00;0.00;;;;;;;;;;1754272;28;20217;-70
2022/11/15 02:37:13;;;;;;;0.00;0.00;;;;;;;;;;1754380;28;20197;-70
2022/11/15 02:38:08;;;;;;;0.00;0.00;;;;;;;;;;1754483;28;20623;-70
2022/11/15 02:39:04;;;;;;;0.00;0.00;;;;;;;;;;1754448;28;20190;-70
2022/11/15 02:39:59;;;;;;;0.00;0.00;;;;;;;;;;1754305;28;20201;-70
2022/11/15 02:40:55;;;;;;;0.00;0.00;;;;;;;;;;1754365;28;20295;-70
2022/11/15 02:41:48;;;;;;;0.00;0.00;;;;;;;;;;1754335;28;20333;-70
2022/11/15 02:43:58;;;;;;;0.00;0.00;;;;;;;;;;1761241;28;20245;-70
2022/11/15 02:44:51;;;;;;;0.00;0.00;;;;;;;;;;1761345;28;20205;-70
2022/11/15 02:45:46;;;;;;;0.00;0.00;;;;;;;;;;1761144;28;20232;-70
2022/11/15 02:48:00;;;;;;;0.00;0.00;;;;;;;;;;1760129;28;20270;-70
2022/11/15 02:48:51;;;;;;;0.00;0.00;;;;;;;;;;1760942;28;20668;-70
2022/11/15 02:49:45;;;;;;;0.00;0.00;;;;;;;;;;1761165;28;20299;-70
2022/11/15 02:50:36;;;;;;;0.00;0.00;;;;;;;;;;1761690;28;20213;-70
2022/11/15 02:51:28;;;;;;;0.00;0.00;;;;;;;;;;1760943;28;20592;-70
2022/11/15 02:52:21;;;;;;;0.00;0.00;;;;;;;;;;1760264;28;20205;-70
2022/11/15 02:53:13;;;;;;;0.00;0.00;;;;;;;;;;1761302;28;20265;-70
2022/11/15 02:54:04;;;;;;;0.00;0.00;;;;;;;;;;1758385;28;20209;-70
2022/11/15 02:54:56;;;;;;;0.00;0.00;;;;;;;;;;1759063;28;20193;-70
2022/11/15 02:55:49;;;;;;;0.00;0.00;;;;;;;;;;1757155;28;20252;-70
2022/11/15 02:56:42;;;;;;;0.00;0.00;;;;;;;;;;1753331;28;20205;-70
2022/11/15 02:57:38;;;;;;;0.00;0.00;;;;;;;;;;1758510;28;20312;-70
2022/11/15 02:58:47;;;;;;;0.00;0.00;;;;;;;;;;1761683;27;20208;-70
2022/11/15 03:00:06;;;;;;;0.00;0.00;;;;;;;;;;1760992;28;20606;-70
2022/11/15 03:01:00;;;;;;;0.00;0.00;;;;;;;;;;1742484;28;20219;-70
2022/11/15 03:01:58;;;;;;;0.00;0.00;;;;;;;;;;1760899;28;20543;-70
2022/11/15 03:02:59;;;;;;;0.00;0.00;;;;;;;;;;1760962;28;20254;-70
2022/11/15 03:03:58;;;;;;;0.00;0.00;;;;;;;;;;1761333;28;20199;-70
2022/11/15 03:04:53;;;;;;;0.00;0.00;;;;;;;;;;1760947;28;20228;-70
2022/11/15 03:05:50;;;;;;;0.00;0.00;;;;;;;;;;1761541;28;20634;-70
2022/11/15 03:06:49;;;;;;;0.00;0.00;;;;;;;;;;1761307;28;20653;-70
2022/11/15 03:07:43;;;;;;;0.00;0.00;;;;;;;;;;1760937;28;20258;-70
2022/11/15 03:08:39;;;;;;;0.00;0.00;;;;;;;;;;1761227;28;20200;-69
2022/11/15 03:09:35;;;;;;;0.00;0.00;;;;;;;;;;1761089;28;20757;-70
2022/11/15 03:10:32;;;;;;;0.00;0.00;;;;;;;;;;1761677;28;20245;-70
2022/11/15 03:11:25;;;;;;;0.00;0.00;;;;;;;;;;1760559;28;20202;-70
2022/11/15 03:12:21;;;;;;;0.00;0.00;;;;;;;;;;1760459;28;20231;-70
2022/11/15 03:13:18;;;;;;;0.00;0.00;;;;;;;;;;1761278;28;20197;-70
2022/11/15 03:14:14;;;;;;;0.00;0.00;;;;;;;;;;1758065;28;20213;-70
2022/11/15 03:15:07;;;;;;;0.00;0.00;;;;;;;;;;1754352;28;20204;-70
2022/11/15 03:16:04;;;;;;;0.00;0.00;;;;;;;;;;1754092;28;20289;-70
2022/11/15 03:16:59;;;;;;;0.00;0.00;;;;;;;;;;1754231;28;20198;-70
2022/11/15 03:17:54;;;;;;;0.00;0.00;;;;;;;;;;1755724;28;20193;-70
2022/11/15 03:18:48;;;;;;;0.00;0.00;;;;;;;;;;1757523;28;20220;-70
2022/11/15 03:19:42;;;;;;;0.10;0.10;;;;;;;;;;1758805;28;20205;-70
2022/11/15 03:20:34;;;;;;;0.00;0.00;;;;;;;;;;1754691;28;20212;-70
2022/11/15 03:21:26;;;;;;;0.00;0.00;;;;;;;;;;1756593;28;20197;-70
2022/11/15 03:22:19;;;;;;;0.00;0.00;;;;;;;;;;1760934;28;20197;-70
2022/11/15 03:23:12;;;;;;;0.00;0.00;;;;;;;;;;1761047;28;20201;-70
2022/11/15 03:24:05;;;;;;;0.00;0.00;;;;;;;;;;1760763;28;20542;-70
2022/11/15 03:25:00;;;;;;;0.00;0.00;;;;;;;;;;1753793;28;20201;-70
2022/11/15 03:25:51;;;;;;;0.00;0.00;;;;;;;;;;1757537;28;20259;-70
2022/11/15 03:26:46;;;;;;;0.00;0.00;;;;;;;;;;1756659;28;20622;-70
2022/11/15 03:27:39;;;;;;;0.00;0.00;;;;;;;;;;1756909;28;20244;-70
2022/11/15 03:28:34;;;;;;;0.00;0.00;;;;;;;;;;1753826;28;20494;-70
2022/11/15 03:29:26;;;;;;;0.00;0.00;;;;;;;;;;1754015;28;20278;-70
2022/11/15 03:30:19;;;;;;;0.00;0.00;;;;;;;;;;1754415;28;20639;-70
2022/11/15 03:32:26;;;;;;;0.00;0.00;;;;;;;;;;1760654;28;20646;-69
2022/11/15 03:33:18;;;;;;;0.00;0.00;;;;;;;;;;1761016;28;20431;-69
2022/11/15 03:34:12;;;;;;;0.00;0.00;;;;;;;;;;1758616;28;20234;-69
2022/11/15 03:35:06;;;;;;;0.00;0.00;;;;;;;;;;1761338;28;20613;-70
2022/11/15 03:35:57;;;;;;;0.00;0.00;;;;;;;;;;1755952;28;20646;-69
2022/11/15 03:36:51;;;;;;;0.00;0.00;;;;;;;;;;1758988;28;20258;-69
2022/11/15 03:37:45;;;;;;;0.00;0.00;;;;;;;;;;1760462;28;20242;-69
2022/11/15 03:38:37;;;;;;;0.00;0.00;;;;;;;;;;1759597;28;20622;-70
2022/11/15 03:39:29;;;;;;;0.00;0.00;;;;;;;;;;1753836;28;20209;-70
2022/11/15 03:40:23;;;;;;;0.00;0.00;;;;;;;;;;1754334;28;20515;-70
2022/11/15 03:41:18;;;;;;;0.00;0.00;;;;;;;;;;1760433;28;20244;-70
2022/11/15 03:42:19;;;;;;;0.00;0.00;;;;;;;;;;1760745;28;20634;-70
2022/11/15 03:43:15;;;;;;;0.00;0.00;;;;;;;;;;1761266;28;20255;-69
2022/11/15 03:44:13;;;;;;;0.00;0.00;;;;;;;;;;1760489;28;20185;-69
2022/11/15 03:45:09;;;;;;;0.00;0.00;;;;;;;;;;1761444;28;20231;-70
2022/11/15 03:46:02;;;;;;;0.00;0.00;;;;;;;;;;1760978;28;20193;-70
2022/11/15 03:46:57;;;;;;;0.00;0.00;;;;;;;;;;1760817;28;20201;-70
2022/11/15 03:47:53;;;;;;;0.00;0.00;;;;;;;;;;1760793;28;20228;-70
2022/11/15 03:48:47;;;;;;;0.00;0.00;;;;;;;;;;1761174;28;20243;-70
2022/11/15 03:49:41;;;;;;;0.00;0.00;;;;;;;;;;1760755;28;20209;-70
2022/11/15 03:50:32;;;;;;;0.00;0.00;;;;;;;;;;1761194;28;20239;-70
2022/11/15 03:51:24;;;;;;;0.00;0.00;;;;;;;;;;1761055;28;20212;-70
2022/11/15 03:52:18;;;;;;;0.00;0.00;;;;;;;;;;1760687;28;20239;-70
2022/11/15 03:53:10;;;;;;;0.00;0.00;;;;;;;;;;1754010;28;20674;-70
2022/11/15 03:54:03;;;;;;;0.00;0.00;;;;;;;;;;1754047;28;20682;-70
2022/11/15 03:54:56;;;;;;;0.00;0.00;;;;;;;;;;1759601;28;20504;-70
2022/11/15 03:55:47;;;;;;;0.00;0.00;;;;;;;;;;1758369;28;20288;-69
2022/11/15 03:56:39;;;;;;;0.00;0.00;;;;;;;;;;1755712;28;20595;-70
2022/11/15 03:57:30;;;;;;;0.00;0.00;;;;;;;;;;1757963;28;20611;-70
2022/11/15 03:58:22;;;;;;;0.00;0.00;;;;;;;;;;1754166;28;20985;-70
2022/11/15 03:59:13;;;;;;;0.00;0.00;;;;;;;;;;1753690;28;20201;-70
2022/11/15 04:00:06;;;;;;;0.00;0.00;;;;;;;;;;1754353;28;20209;-70
2022/11/15 04:00:59;;;;;;;0.00;0.00;;;;;;;;;;1753767;28;20201;-70
2022/11/15 04:01:51;;;;;;;0.00;0.00;;;;;;;;;;1753917;28;20403;-70
2022/11/15 04:02:43;;;;;;;0.00;0.00;;;;;;;;;;1753679;28;20240;-70
2022/11/15 04:03:35;;;;;;;0.00;0.00;;;;;;;;;;1753671;28;20647;-70
2022/11/15 04:04:26;;;;;;;0.00;0.00;;;;;;;;;;1753874;28;20516;-70
2022/11/15 04:05:19;;;;;;;0.00;0.00;;;;;;;;;;1754302;28;20227;-70
2022/11/15 04:06:10;;;;;;;0.00;0.00;;;;;;;;;;1753865;28;20802;-70
2022/11/15 04:07:02;;;;;;;0.00;0.00;;;;;;;;;;1753955;28;20231;-70
2022/11/15 04:07:53;;;;;;;0.00;0.00;;;;;;;;;;1757933;28;20236;-70
2022/11/15 04:08:45;;;;;;;0.00;0.00;;;;;;;;;;1761127;28;20200;-70
2022/11/15 04:10:01;;;;;;;0.00;0.00;;;;;;;;;;1754016;28;20255;-70
2022/11/15 04:10:50;;;;;;;0.00;0.00;;;;;;;;;;1753790;28;20209;-70
2022/11/15 04:11:41;;;;;;;0.00;0.00;;;;;;;;;;1753785;28;20210;-70
2022/11/15 04:12:33;;;;;;;0.00;0.00;;;;;;;;;;1753445;28;20209;-70
2022/11/15 04:13:24;;;;;;;0.00;0.00;;;;;;;;;;1753924;28;20221;-70
2022/11/15 04:14:16;;;;;;;0.00;0.00;;;;;;;;;;1753860;28;20217;-70
2022/11/15 04:15:09;;;;;;;0.00;0.00;;;;;;;;;;1754330;28;20216;-71
2022/11/15 04:16:01;;;;;;;0.00;0.00;;;;;;;;;;1753411;28;20205;-70
2022/11/15 04:16:52;;;;;;;0.00;0.00;;;;;;;;;;1754160;28;20248;-70
2022/11/15 04:17:46;;;;;;;0.00;0.00;;;;;;;;;;1753742;28;20209;-70
2022/11/15 04:18:37;;;;;;;0.00;0.00;;;;;;;;;;1754233;28;20202;-70
2022/11/15 04:24:14;;;;;;;0.00;0.00;;;;;;;;;;1760797;28;20204;-70
2022/11/15 04:25:05;;;;;;;0.00;0.00;;;;;;;;;;1759891;28;20189;-70
2022/11/15 04:25:59;;;;;;;0.00;0.00;;;;;;;;;;1756363;28;20232;-70
2022/11/15 04:26:50;;;;;;;0.00;0.00;;;;;;;;;;1757320;28;20239;-70
2022/11/15 04:27:41;;;;;;;0.00;0.00;;;;;;;;;;1756235;28;20209;-70
2022/11/15 04:28:33;;;;;;;0.00;0.00;;;;;;;;;;1753818;28;20517;-70
2022/11/15 04:29:34;;;;;;;0.00;0.00;;;;;;;;;;1753805;28;20622;-70
2022/11/15 04:30:25;;;;;;;0.00;0.00;;;;;;;;;;1754151;28;20197;-70
2022/11/15 04:31:17;;;;;;;0.00;0.00;;;;;;;;;;1760562;28;20197;-70
2022/11/15 04:32:08;;;;;;;0.00;0.00;;;;;;;;;;1760229;28;20315;-70
2022/11/15 04:33:01;;;;;;;0.00;0.00;;;;;;;;;;1760700;28;20521;-70
2022/11/15 04:33:52;;;;;;;0.00;0.00;;;;;;;;;;1760821;28;20587;-70
2022/11/15 04:34:44;;;;;;;0.00;0.00;;;;;;;;;;1760741;28;20211;-70
2022/11/15 04:35:36;;;;;;;0.00;0.00;;;;;;;;;;1761258;28;20236;-70
2022/11/15 04:37:37;;;;;;;0.00;0.00;;;;;;;;;;1760740;28;20229;-70
2022/11/15 04:38:28;;;;;;;0.00;0.00;;;;;;;;;;1760829;28;20564;-69
2022/11/15 04:39:19;;;;;;;0.00;0.00;;;;;;;;;;1760822;28;20231;-70
2022/11/15 04:40:12;;;;;;;0.00;0.00;;;;;;;;;;1761379;28;20278;-70
2022/11/15 04:41:03;;;;;;;0.00;0.00;;;;;;;;;;1760532;28;20292;-70
2022/11/15 04:41:55;;;;;;;0.00;0.00;;;;;;;;;;1760758;28;20201;-70
2022/11/15 04:42:46;;;;;;;0.00;0.00;;;;;;;;;;1760323;28;20205;-70
2022/11/15 04:43:38;;;;;;;0.00;0.00;;;;;;;;;;1760971;28;20208;-70
2022/11/15 04:44:29;;;;;;;0.00;0.00;;;;;;;;;;1760648;28;20212;-70
2022/11/15 04:45:21;;;;;;;0.00;0.00;;;;;;;;;;1761214;28;20232;-70
2022/11/15 04:46:12;;;;;;;0.00;0.00;;;;;;;;;;1760531;28;20646;-70
2022/11/15 04:47:04;;;;;;;0.00;0.00;;;;;;;;;;1760804;28;20529;-70
2022/11/15 04:47:55;;;;;;;0.00;0.00;;;;;;;;;;1760346;28;20209;-70
2022/11/15 04:48:49;;;;;;;0.00;0.00;;;;;;;;;;1760815;28;20207;-70
2022/11/15 04:49:40;;;;;;;0.00;0.00;;;;;;;;;;1760895;28;20236;-70
2022/11/15 04:50:32;;;;;;;0.00;0.00;;;;;;;;;;1761211;28;20689;-70
2022/11/15 04:51:23;;;;;;;0.00;0.00;;;;;;;;;;1760482;28;20217;-70
2022/11/15 04:52:15;;;;;;;0.00;0.00;;;;;;;;;;1759696;28;20618;-70
2022/11/15 04:53:06;;;;;;;0.00;0.00;;;;;;;;;;1753321;28;20561;-70
2022/11/15 04:53:58;;;;;;;0.00;0.00;;;;;;;;;;1753764;28;20209;-69
2022/11/15 04:54:49;;;;;;;0.00;0.00;;;;;;;;;;1759029;28;20270;-69
2022/11/15 04:55:45;;;;;;;0.00;0.00;;;;;;;;;;1758736;28;20209;-69
2022/11/15 04:56:36;;;;;;;0.00;0.00;;;;;;;;;;1755374;28;20201;-70
2022/11/15 04:57:28;;;;;;;0.00;0.00;;;;;;;;;;1757972;28;20779;-70
2022/11/15 04:58:19;;;;;;;0.00;0.00;;;;;;;;;;1753772;28;20241;-70
2022/11/15 04:59:11;;;;;;;0.00;0.00;;;;;;;;;;1753505;28;20265;-70
2022/11/15 05:00:04;;;;;;;0.00;0.00;;;;;;;;;;1753950;28;20230;-70
2022/11/15 05:00:56;;;;;;;0.00;0.00;;;;;;;;;;1753603;28;20233;-70
2022/11/15 05:01:47;;;;;;;0.00;0.00;;;;;;;;;;1753639;28;20236;-70
2022/11/15 05:05:00;;;;;;;0.00;0.00;;;;;;;;;;1758362;28;20246;-70
2022/11/15 05:05:51;;;;;;;0.00;0.00;;;;;;;;;;1753617;28;20210;-70
2022/11/15 05:06:43;;;;;;;0.00;0.00;;;;;;;;;;1759833;28;20261;-71
2022/11/15 05:07:34;;;;;;;0.00;0.00;;;;;;;;;;1760484;28;20235;-70
2022/11/15 05:08:26;;;;;;;0.00;0.00;;;;;;;;;;1760627;28;20653;-70
2022/11/15 05:09:17;;;;;;;0.00;0.00;;;;;;;;;;1756727;28;20244;-70
2022/11/15 05:10:09;;;;;;;0.00;0.00;;;;;;;;;;1754039;28;20642;-70
2022/11/15 05:11:01;;;;;;;0.00;0.00;;;;;;;;;;1753538;28;20588;-70
2022/11/15 05:11:52;;;;;;;0.00;0.00;;;;;;;;;;1753303;28;20197;-70
2022/11/15 05:12:44;;;;;;;0.00;0.00;;;;;;;;;;1753755;28;20267;-70
2022/11/15 05:13:35;;;;;;;0.00;0.00;;;;;;;;;;1753701;28;20249;-70
2022/11/15 05:14:27;;;;;;;0.00;0.00;;;;;;;;;;1753380;28;20213;-70
2022/11/15 05:15:18;;;;;;;0.00;0.00;;;;;;;;;;1754716;28;20244;-70
2022/11/15 05:16:09;;;;;;;0.00;0.00;;;;;;;;;;1754764;28;20523;-70
2022/11/15 05:17:02;;;;;;;0.00;0.00;;;;;;;;;;1755090;28;20197;-70
2022/11/15 05:17:57;;;;;;;0.00;0.00;;;;;;;;;;1754560;28;20208;-70
2022/11/15 05:18:53;;;;;;;0.00;0.00;;;;;;;;;;1755146;28;20186;-70
2022/11/15 05:19:44;;;;;;;0.00;0.00;;;;;;;;;;1760585;28;20228;-70
2022/11/15 05:20:36;;;;;;;0.00;0.00;;;;;;;;;;1762037;28;20609;-70
2022/11/15 05:21:27;;;;;;;0.00;0.00;;;;;;;;;;1761902;28;20259;-70
2022/11/15 05:22:20;;;;;;;0.00;0.00;;;;;;;;;;1761544;28;20212;-70
2022/11/15 05:23:11;;;;;;;0.00;0.00;;;;;;;;;;1761962;28;20231;-70
2022/11/15 05:24:03;;;;;;;0.00;0.00;;;;;;;;;;1761942;28;20204;-70
2022/11/15 05:24:54;;;;;;;0.00;0.00;;;;;;;;;;1757259;28;20892;-70
2022/11/15 05:25:46;;;;;;;0.00;0.00;;;;;;;;;;1755741;28;20263;-70
2022/11/15 05:26:37;;;;;;;0.00;0.00;;;;;;;;;;1756560;28;20292;-70
2022/11/15 05:27:29;;;;;;;0.00;0.00;;;;;;;;;;1761616;28;20436;-71
2022/11/15 05:28:20;;;;;;;0.00;0.00;;;;;;;;;;1762076;28;20254;-70
2022/11/15 05:29:12;;;;;;;0.00;0.00;;;;;;;;;;1761859;28;20224;-71
2022/11/15 05:30:04;;;;;;;0.00;0.00;;;;;;;;;;1762253;28;20555;-70
2022/11/15 05:31:01;;;;;;;0.00;0.00;;;;;;;;;;1761689;28;20493;-70